Terminal Aerodrome Forecast
Issued by NWS Cleveland, OH

Home | Current Version | Previous Version | Graphics & Text | Print | Product List | Glossary Off
Versions: 1 2 3 4 5 6 7 8 9 10 11 12 13 14 15

940
FTUS41 KCLE 210251 AAA
TAFTOL
TAF AMD
KTOL 210251Z 2103/2124 25012KT P6SM FEW025 SCT050
     FM210800 27012G20KT P6SM OVC025
     FM212100 30012G20KT P6SM OVC025=

USA.gov is the U.S. government's official web portal to all federal, state and local government web resources and services.